createdAt,value
2022-07-29T00:00:18.176Z,73.68
2022-07-29T00:00:49.777Z,73.20
2022-07-29T00:01:21.520Z,73.49
2022-07-29T00:01:53.559Z,73.43
2022-07-29T00:02:25.184Z,73.84
2022-07-29T00:02:56.823Z,73.98
2022-07-29T00:03:28.563Z,73.92
2022-07-29T00:04:00.266Z,74.25
2022-07-29T00:04:31.950Z,74.50
2022-07-29T00:05:04.885Z,73.83
2022-07-29T00:05:36.455Z,74.02
2022-07-29T00:06:08.397Z,73.90
2022-07-29T00:06:40.403Z,74.01
2022-07-29T00:07:12.012Z,73.77
2022-07-29T00:07:45.503Z,73.68
2022-07-29T00:08:17.106Z,74.04
2022-07-29T00:08:48.750Z,74.47
2022-07-29T00:09:20.336Z,74.13
2022-07-29T00:09:52.617Z,74.33
2022-07-29T00:10:24.401Z,73.90
2022-07-29T00:10:56.020Z,73.85
2022-07-29T00:11:27.674Z,74.63
2022-07-29T00:12:01.410Z,74.63
2022-07-29T00:12:33.285Z,74.93
2022-07-29T00:13:04.857Z,74.21
2022-07-29T00:13:36.503Z,74.37
2022-07-29T00:14:08.846Z,74.21
2022-07-29T00:14:40.435Z,74.37
2022-07-29T00:15:12.028Z,74.47
2022-07-29T00:15:43.565Z,74.60
2022-07-29T00:16:15.117Z,74.72
2022-07-29T00:16:46.735Z,74.37
2022-07-29T00:17:18.970Z,75.04
2022-07-29T00:17:50.953Z,75.17
2022-07-29T00:18:22.464Z,74.79
2022-07-29T00:18:54.049Z,75.03
2022-07-29T00:19:25.589Z,74.11
2022-07-29T00:19:57.224Z,74.68
2022-07-29T00:20:28.905Z,74.47
2022-07-29T00:21:00.575Z,74.90
2022-07-29T00:21:32.263Z,74.70
2022-07-29T00:22:03.843Z,74.08
2022-07-29T00:22:38.693Z,74.79
2022-07-29T00:23:13.603Z,74.77
2022-07-29T00:23:45.361Z,75.24
2022-07-29T00:24:17.254Z,74.84
2022-07-29T00:24:49.910Z,74.24
2022-07-29T00:25:21.468Z,75.43
2022-07-29T00:25:52.997Z,74.79
2022-07-29T00:26:24.613Z,74.18
2022-07-29T00:26:56.249Z,75.14
2022-07-29T00:27:27.821Z,75.08
2022-07-29T00:27:59.368Z,74.39
2022-07-29T00:28:30.933Z,74.50
2022-07-29T00:29:32.429Z,74.95
2022-07-29T00:29:55.578Z,75.25
2022-07-29T00:30:27.138Z,74.73
2022-07-29T00:30:58.731Z,74.87
2022-07-29T00:31:30.500Z,74.61
2022-07-29T00:32:03.248Z,75.01
2022-07-29T00:32:34.928Z,74.81
2022-07-29T00:33:09.092Z,74.75
2022-07-29T00:33:40.847Z,74.56
2022-07-29T00:34:30.821Z,74.90
2022-07-29T00:35:20.787Z,74.72
2022-07-29T00:35:52.393Z,74.87
2022-07-29T00:36:24.987Z,75.29
2022-07-29T00:36:57.064Z,74.77
2022-07-29T00:37:28.685Z,74.71
2022-07-29T00:38:00.280Z,75.33
2022-07-29T00:38:33.796Z,74.49
2022-07-29T00:39:05.301Z,74.53
2022-07-29T00:39:36.966Z,74.80
2022-07-29T00:40:09.326Z,74.97
2022-07-29T00:40:43.307Z,75.05
2022-07-29T00:41:16.697Z,74.73
2022-07-29T00:41:48.362Z,74.60
2022-07-29T00:42:19.977Z,74.85
2022-07-29T00:42:52.743Z,74.76
2022-07-29T00:43:24.345Z,75.13
2022-07-29T00:43:55.888Z,74.95
2022-07-29T00:44:27.428Z,74.87
2022-07-29T00:44:58.965Z,74.85
2022-07-29T00:45:31.086Z,75.09
2022-07-29T00:46:02.728Z,75.69
2022-07-29T00:46:34.321Z,75.30
2022-07-29T00:47:06.530Z,75.20
2022-07-29T00:47:38.145Z,75.07
2022-07-29T00:48:09.898Z,74.75
2022-07-29T00:48:41.535Z,75.23
2022-07-29T00:49:13.814Z,74.91
2022-07-29T00:49:45.520Z,74.96
2022-07-29T00:50:17.902Z,74.79
2022-07-29T00:50:50.464Z,74.50
2022-07-29T00:51:22.010Z,75.11
2022-07-29T00:51:54.408Z,74.44
2022-07-29T00:52:26.295Z,74.21
2022-07-29T00:52:57.971Z,74.57
2022-07-29T00:53:30.919Z,74.66
2022-07-29T00:54:03.788Z,74.80
2022-07-29T00:54:39.193Z,75.26
2022-07-29T00:55:16.883Z,75.06
2022-07-29T00:55:48.517Z,75.05
2022-07-29T00:56:20.399Z,75.64
2022-07-29T00:56:52.055Z,75.50
2022-07-29T00:57:23.712Z,75.03
2022-07-29T00:57:56.076Z,75.78
2022-07-29T00:58:27.852Z,75.30
2022-07-29T00:59:00.745Z,75.34
2022-07-29T00:59:34.826Z,75.31
2022-07-29T01:00:09.378Z,75.55
2022-07-29T01:00:41.862Z,75.32
2022-07-29T01:01:13.606Z,76.05
2022-07-29T01:01:45.242Z,75.46
2022-07-29T01:02:17.026Z,75.85
2022-07-29T01:02:49.601Z,75.67
2022-07-29T01:03:21.141Z,75.77
2022-07-29T01:03:52.741Z,76.09
2022-07-29T01:04:24.400Z,75.66
2022-07-29T01:04:58.056Z,75.26
2022-07-29T01:05:50.576Z,75.35
2022-07-29T01:06:22.896Z,76.10
2022-07-29T01:06:54.758Z,76.01
2022-07-29T01:07:27.018Z,75.56
2022-07-29T01:07:58.950Z,76.12
2022-07-29T01:08:31.635Z,75.51
2022-07-29T01:09:04.265Z,75.09
2022-07-29T01:09:45.856Z,75.37
2022-07-29T01:10:19.968Z,76.24
2022-07-29T01:10:51.976Z,75.34
2022-07-29T01:11:23.690Z,75.38
2022-07-29T01:11:55.352Z,75.42
2022-07-29T01:12:28.201Z,76.01
2022-07-29T01:13:00.949Z,75.82
2022-07-29T01:13:34.258Z,75.55
2022-07-29T01:14:07.738Z,75.25
2022-07-29T01:14:40.089Z,75.64
2022-07-29T01:15:12.061Z,75.21
2022-07-29T01:15:53.410Z,74.92
2022-07-29T01:16:32.142Z,75.41
2022-07-29T01:17:26.995Z,75.39
2022-07-29T01:18:37.073Z,75.71
2022-07-29T01:19:18.314Z,75.35
2022-07-29T01:19:56.112Z,75.06
2022-07-29T01:20:40.010Z,74.49
2022-07-29T01:21:38.914Z,75.45
2022-07-29T01:23:01.191Z,75.25
2022-07-29T01:23:57.326Z,75.58
2022-07-29T01:24:43.705Z,75.39
2022-07-29T01:25:34.401Z,75.71
2022-07-29T01:26:30.881Z,75.74
2022-07-29T01:27:24.750Z,75.11
2022-07-29T01:28:09.951Z,75.42
2022-07-29T01:28:58.780Z,75.43
2022-07-29T01:29:38.846Z,75.72
2022-07-29T01:30:13.852Z,75.34
2022-07-29T01:30:50.916Z,75.25
2022-07-29T01:31:58.554Z,75.33
2022-07-29T01:32:34.522Z,75.09
2022-07-29T01:33:09.230Z,75.15
2022-07-29T01:33:50.314Z,75.45
2022-07-29T01:34:37.113Z,75.80
2022-07-29T01:35:24.833Z,75.71
2022-07-29T01:35:56.551Z,75.40
2022-07-29T01:36:34.973Z,75.66
2022-07-29T01:37:21.413Z,75.95
2022-07-29T01:38:18.658Z,75.46
2022-07-29T01:39:06.523Z,76.10
2022-07-29T01:39:39.476Z,75.37
2022-07-29T01:40:18.825Z,75.61
2022-07-29T01:41:12.293Z,75.47
2022-07-29T01:41:52.050Z,75.26
2022-07-29T01:42:39.258Z,76.13
2022-07-29T01:43:13.949Z,76.43
2022-07-29T01:43:51.160Z,75.95
2022-07-29T01:44:33.252Z,75.58
2022-07-29T01:45:14.982Z,75.33
2022-07-29T01:45:49.920Z,75.84
2022-07-29T01:46:26.942Z,75.53
2022-07-29T01:47:00.728Z,75.49
2022-07-29T01:48:05.978Z,75.92
2022-07-29T01:48:49.407Z,75.18
2022-07-29T01:49:28.573Z,75.17
2022-07-29T01:50:00.775Z,75.10
2022-07-29T01:50:39.046Z,74.77
2022-07-29T01:51:14.605Z,74.88
2022-07-29T01:51:52.986Z,75.37
2022-07-29T01:52:29.115Z,75.29
2022-07-29T01:53:03.409Z,75.32
2022-07-29T01:53:47.392Z,75.75
2022-07-29T01:54:31.590Z,76.34
2022-07-29T01:55:10.894Z,75.77
2022-07-29T01:55:45.779Z,75.77
2022-07-29T01:56:19.692Z,75.75
2022-07-29T01:56:52.817Z,76.04
2022-07-29T01:57:28.002Z,75.68
2022-07-29T01:58:01.443Z,76.13
2022-07-29T01:58:33.868Z,75.64
2022-07-29T01:59:06.565Z,75.89
2022-07-29T01:59:38.644Z,76.14
2022-07-29T02:00:11.138Z,76.66
2022-07-29T02:00:46.512Z,76.62
2022-07-29T02:01:19.080Z,76.91
2022-07-29T02:01:54.455Z,76.44
2022-07-29T02:02:27.600Z,75.90
2022-07-29T02:03:01.382Z,75.71
2022-07-29T02:03:33.566Z,75.73
2022-07-29T02:04:07.240Z,75.71
2022-07-29T02:04:40.407Z,75.71
2022-07-29T02:05:15.939Z,75.26
2022-07-29T02:05:49.125Z,75.51
2022-07-29T02:06:22.458Z,75.47
2022-07-29T02:06:54.393Z,75.92
2022-07-29T02:07:26.834Z,75.58
2022-07-29T02:07:59.860Z,75.68
2022-07-29T02:08:33.317Z,75.74
2022-07-29T02:09:05.592Z,75.26
2022-07-29T02:09:40.670Z,75.76
2022-07-29T02:10:13.397Z,75.64
2022-07-29T02:10:45.641Z,75.98
2022-07-29T02:11:17.333Z,75.72
2022-07-29T02:11:52.406Z,75.78
2022-07-29T02:12:25.319Z,76.30
2022-07-29T02:12:58.299Z,75.93
2022-07-29T02:13:30.475Z,75.61
2022-07-29T02:14:02.665Z,75.50
2022-07-29T02:14:38.498Z,75.91
2022-07-29T02:15:10.911Z,76.10
2022-07-29T02:15:44.473Z,76.10
2022-07-29T02:16:16.852Z,75.91
2022-07-29T02:16:50.769Z,75.70
2022-07-29T02:17:26.475Z,76.16
2022-07-29T02:18:17.822Z,76.06
2022-07-29T02:18:49.909Z,76.46
2022-07-29T02:19:23.407Z,76.21
2022-07-29T02:20:03.836Z,76.70
2022-07-29T02:20:35.569Z,76.77
2022-07-29T02:21:15.554Z,76.20
2022-07-29T02:21:47.786Z,76.14
2022-07-29T02:22:19.490Z,76.57
2022-07-29T02:22:51.918Z,76.39
2022-07-29T02:23:24.570Z,75.96
2022-07-29T02:23:57.293Z,76.40
2022-07-29T02:24:29.817Z,76.98
2022-07-29T02:25:02.120Z,76.47
2022-07-29T02:25:38.254Z,76.62
2022-07-29T02:26:10.376Z,77.22
2022-07-29T02:26:42.753Z,77.46
2022-07-29T02:27:15.252Z,78.71
2022-07-29T02:27:48.055Z,78.17
2022-07-29T02:28:20.141Z,78.03
2022-07-29T02:28:53.737Z,78.10
2022-07-29T02:29:27.477Z,78.33
2022-07-29T02:29:59.674Z,79.02
2022-07-29T02:30:31.618Z,79.10
2022-07-29T02:31:04.491Z,78.56
2022-07-29T02:31:36.846Z,78.99
2022-07-29T02:32:09.633Z,79.62
2022-07-29T02:32:42.688Z,79.74
2022-07-29T02:33:17.181Z,78.78
2022-07-29T02:33:49.291Z,78.91
2022-07-29T02:34:21.856Z,79.42
2022-07-29T02:34:53.587Z,79.37
2022-07-29T02:35:25.648Z,79.68
2022-07-29T02:35:57.594Z,79.11
2022-07-29T02:36:29.554Z,79.36
2022-07-29T02:37:01.380Z,78.98
2022-07-29T02:37:33.233Z,78.96
2022-07-29T02:38:23.212Z,78.88
2022-07-29T02:38:58.500Z,78.53
2022-07-29T02:39:30.641Z,78.93
2022-07-29T02:40:03.086Z,78.49
2022-07-29T02:40:35.985Z,79.28
2022-07-29T02:41:13.418Z,79.03
2022-07-29T02:41:59.012Z,79.34
2022-07-29T02:42:31.827Z,78.82
2022-07-29T02:43:05.341Z,78.96
2022-07-29T02:43:36.995Z,78.94
2022-07-29T02:44:13.984Z,78.62
2022-07-29T02:44:45.840Z,78.42
2022-07-29T02:45:17.419Z,79.76
2022-07-29T02:45:53.089Z,80.07
2022-07-29T02:46:31.349Z,79.25
2022-07-29T02:47:12.628Z,79.06
2022-07-29T02:47:48.966Z,79.75
2022-07-29T02:48:24.327Z,79.36
2022-07-29T02:49:00.261Z,79.47
2022-07-29T02:49:34.435Z,79.96
2022-07-29T02:50:30.946Z,80.50
2022-07-29T02:51:08.255Z,79.16
2022-07-29T02:52:03.845Z,79.32
2022-07-29T02:53:13.843Z,79.16
2022-07-29T02:53:50.362Z,78.99
2022-07-29T02:54:36.444Z,78.96
2022-07-29T02:55:16.309Z,78.73
2022-07-29T02:55:53.038Z,79.04
2022-07-29T02:56:29.332Z,79.46
2022-07-29T02:57:05.553Z,79.21
2022-07-29T02:57:55.448Z,79.78
2022-07-29T02:58:29.840Z,79.61
2022-07-29T02:59:05.679Z,79.11
2022-07-29T02:59:38.881Z,79.06
2022-07-29T03:00:11.340Z,79.41
2022-07-29T03:00:45.180Z,78.93
2022-07-29T03:01:21.678Z,79.23
2022-07-29T03:01:55.580Z,79.62
2022-07-29T03:02:28.425Z,78.76
2022-07-29T03:03:04.771Z,80.99
2022-07-29T03:03:38.505Z,81.20
2022-07-29T03:04:10.983Z,81.56
2022-07-29T03:04:43.731Z,81.76
2022-07-29T03:05:18.722Z,81.28
2022-07-29T03:05:50.565Z,81.06
2022-07-29T03:06:28.261Z,81.64
2022-07-29T03:07:10.085Z,81.11
2022-07-29T03:07:43.101Z,80.89
2022-07-29T03:08:15.899Z,80.75
2022-07-29T03:08:48.407Z,80.85
2022-07-29T03:09:20.610Z,81.24
2022-07-29T03:09:52.864Z,81.49
2022-07-29T03:10:28.480Z,81.56
2022-07-29T03:11:00.599Z,81.91
2022-07-29T03:11:45.903Z,82.52
2022-07-29T03:12:21.437Z,82.47
2022-07-29T03:12:54.057Z,82.57
2022-07-29T03:13:26.188Z,83.33
2022-07-29T03:13:58.008Z,82.64
2022-07-29T03:14:29.730Z,82.83
2022-07-29T03:15:01.884Z,82.88
2022-07-29T03:15:33.666Z,82.23
2022-07-29T03:16:06.926Z,82.69
2022-07-29T03:16:41.231Z,83.20
2022-07-29T03:17:13.463Z,83.26
2022-07-29T03:17:45.144Z,83.32
2022-07-29T03:18:16.969Z,83.35
2022-07-29T03:18:48.886Z,83.81
2022-07-29T03:19:21.390Z,84.09
2022-07-29T03:19:53.353Z,84.47
2022-07-29T03:20:25.340Z,83.58
2022-07-29T03:20:57.205Z,83.55
2022-07-29T03:21:28.786Z,83.30
2022-07-29T03:22:00.726Z,83.58
2022-07-29T03:22:32.284Z,82.88
2022-07-29T03:23:03.832Z,82.54
2022-07-29T03:23:36.803Z,82.13
2022-07-29T03:24:10.844Z,81.83
2022-07-29T03:24:42.764Z,82.05
2022-07-29T03:25:16.290Z,81.50
2022-07-29T03:25:47.950Z,81.88
2022-07-29T03:26:20.042Z,81.84
2022-07-29T03:26:51.743Z,81.09
2022-07-29T03:27:23.391Z,81.58
2022-07-29T03:27:55.079Z,81.48
2022-07-29T03:28:28.257Z,81.16
2022-07-29T03:28:59.986Z,80.93
2022-07-29T03:29:33.408Z,81.27
2022-07-29T03:30:08.264Z,80.97
2022-07-29T03:30:40.569Z,81.65
2022-07-29T03:31:16.346Z,80.67
2022-07-29T03:31:47.920Z,80.84
2022-07-29T03:32:25.117Z,81.15
2022-07-29T03:32:58.841Z,80.81
2022-07-29T03:33:31.378Z,80.66
2022-07-29T03:34:02.966Z,80.34
2022-07-29T03:34:34.607Z,80.23
2022-07-29T03:35:07.278Z,79.86
2022-07-29T03:35:39.038Z,80.45
2022-07-29T03:36:10.578Z,81.55
2022-07-29T03:36:42.118Z,81.64
2022-07-29T03:37:14.158Z,81.32
2022-07-29T03:37:46.385Z,81.69
2022-07-29T03:38:18.006Z,82.01
2022-07-29T03:38:50.272Z,82.29
2022-07-29T03:39:25.196Z,82.55
2022-07-29T03:39:58.263Z,82.06
2022-07-29T03:40:36.257Z,82.69
2022-07-29T03:41:10.494Z,83.06
2022-07-29T03:41:43.388Z,83.52
2022-07-29T03:42:16.456Z,83.57
2022-07-29T03:42:48.343Z,84.03
2022-07-29T03:43:20.912Z,84.05
2022-07-29T03:43:52.932Z,84.31
2022-07-29T03:44:26.416Z,83.60
2022-07-29T03:44:59.630Z,83.62
2022-07-29T03:45:31.834Z,84.36
2022-07-29T03:46:05.018Z,84.13
2022-07-29T03:46:40.955Z,84.66
2022-07-29T03:47:15.906Z,83.98
2022-07-29T03:47:52.890Z,84.23
2022-07-29T03:48:27.588Z,83.48
2022-07-29T03:49:01.409Z,84.26
2022-07-29T03:49:33.738Z,83.62
2022-07-29T03:50:10.856Z,83.23
2022-07-29T03:50:42.639Z,83.30
2022-07-29T03:51:14.628Z,83.53
2022-07-29T03:51:46.445Z,84.65
2022-07-29T03:52:18.143Z,83.94
2022-07-29T03:52:50.155Z,83.37
2022-07-29T03:53:21.777Z,82.25
2022-07-29T03:53:53.744Z,82.06
2022-07-29T03:54:25.568Z,82.14
2022-07-29T03:54:57.148Z,81.37
2022-07-29T03:55:30.744Z,81.78
2022-07-29T03:56:03.256Z,81.03
2022-07-29T03:56:38.859Z,81.66
2022-07-29T03:57:11.928Z,81.33
2022-07-29T03:57:45.660Z,81.95
2022-07-29T03:58:17.414Z,82.23
2022-07-29T03:58:51.262Z,81.76
2022-07-29T03:59:23.545Z,81.63
2022-07-29T03:59:55.763Z,81.92
2022-07-29T04:00:28.374Z,80.99
2022-07-29T04:01:00.478Z,81.01
2022-07-29T04:01:34.009Z,81.01
2022-07-29T04:02:06.586Z,80.35
2022-07-29T04:02:39.071Z,81.04
2022-07-29T04:03:11.818Z,80.54
2022-07-29T04:03:43.535Z,80.65
2022-07-29T04:04:15.605Z,80.26
2022-07-29T04:04:47.911Z,80.58
2022-07-29T04:05:19.901Z,81.17
2022-07-29T04:06:07.465Z,81.26
2022-07-29T04:06:43.025Z,81.46
2022-07-29T04:07:16.019Z,81.53
2022-07-29T04:07:48.598Z,81.77
2022-07-29T04:08:20.145Z,82.02
2022-07-29T04:08:51.690Z,81.43
2022-07-29T04:09:23.324Z,81.69
2022-07-29T04:09:54.869Z,81.21
2022-07-29T04:10:31.507Z,81.83
2022-07-29T04:11:04.481Z,80.99
2022-07-29T04:12:03.511Z,80.72
2022-07-29T04:12:29.081Z,81.50
2022-07-29T04:13:00.888Z,81.60
2022-07-29T04:13:33.153Z,81.25
2022-07-29T04:14:04.795Z,81.15
2022-07-29T04:14:36.619Z,80.57
2022-07-29T04:15:08.752Z,80.71
2022-07-29T04:15:40.359Z,81.17
2022-07-29T04:16:12.040Z,80.73
2022-07-29T04:16:43.631Z,80.72
2022-07-29T04:17:15.234Z,80.74
2022-07-29T04:17:46.805Z,80.59
2022-07-29T04:18:20.797Z,80.98
2022-07-29T04:18:52.326Z,81.07
2022-07-29T04:19:23.895Z,80.14
2022-07-29T04:19:55.425Z,81.11
2022-07-29T04:20:27.066Z,80.37
2022-07-29T04:21:01.704Z,80.58
2022-07-29T04:21:38.781Z,80.03
2022-07-29T04:22:10.325Z,80.80
2022-07-29T04:22:42.164Z,80.41
2022-07-29T04:23:13.988Z,80.23
2022-07-29T04:23:53.889Z,80.79
2022-07-29T04:24:26.180Z,80.17
2022-07-29T04:25:01.759Z,80.37
2022-07-29T04:25:38.600Z,81.56
2022-07-29T04:26:11.796Z,81.17
2022-07-29T04:26:43.460Z,81.13
2022-07-29T04:27:15.073Z,80.08
2022-07-29T04:28:01.793Z,80.45
2022-07-29T04:28:33.406Z,79.92
2022-07-29T04:29:05.090Z,80.56
2022-07-29T04:29:36.648Z,80.10
2022-07-29T04:30:29.020Z,80.19
2022-07-29T04:31:00.625Z,80.21
2022-07-29T04:31:32.290Z,79.78
2022-07-29T04:32:04.181Z,79.50
2022-07-29T04:32:35.730Z,79.54
2022-07-29T04:33:07.981Z,80.49
2022-07-29T04:33:40.094Z,80.19
2022-07-29T04:34:11.985Z,80.33
2022-07-29T04:34:43.618Z,80.65
2022-07-29T04:35:15.161Z,80.42
2022-07-29T04:35:50.006Z,80.00
2022-07-29T04:36:28.666Z,80.01
2022-07-29T04:37:01.624Z,80.26
2022-07-29T04:37:33.676Z,80.26
2022-07-29T04:38:06.725Z,79.82
2022-07-29T04:38:38.989Z,79.61
2022-07-29T04:39:11.342Z,80.33
2022-07-29T04:39:42.884Z,79.94
2022-07-29T04:40:14.572Z,80.16
2022-07-29T04:40:47.038Z,80.54
2022-07-29T04:41:20.180Z,80.25
2022-07-29T04:41:54.955Z,79.75
2022-07-29T04:42:27.994Z,80.11
2022-07-29T04:43:02.144Z,79.81
2022-07-29T04:43:37.373Z,80.14
2022-07-29T04:44:08.915Z,80.85
2022-07-29T04:44:43.168Z,80.12
2022-07-29T04:45:15.119Z,80.00
2022-07-29T04:45:47.754Z,80.17
2022-07-29T04:46:19.417Z,80.37
2022-07-29T04:46:51.249Z,80.38
2022-07-29T04:47:22.812Z,80.75
2022-07-29T04:47:54.583Z,79.90
2022-07-29T04:48:28.700Z,80.50
2022-07-29T04:49:00.704Z,79.95
2022-07-29T04:49:32.402Z,80.88
2022-07-29T04:50:04.584Z,80.51
2022-07-29T04:50:39.452Z,80.77
2022-07-29T04:51:11.064Z,81.05
2022-07-29T04:51:42.786Z,80.64
2022-07-29T04:52:14.362Z,81.71
2022-07-29T04:52:45.956Z,81.26
2022-07-29T04:53:17.526Z,81.28
2022-07-29T04:53:49.178Z,81.66
2022-07-29T04:54:20.754Z,81.16
2022-07-29T04:54:52.525Z,80.82
2022-07-29T04:55:24.113Z,81.66
2022-07-29T04:55:55.837Z,80.82
2022-07-29T04:56:27.728Z,80.75
2022-07-29T04:56:59.272Z,81.02
2022-07-29T04:57:30.849Z,80.57
2022-07-29T04:58:02.388Z,80.96
2022-07-29T04:58:37.109Z,80.84
2022-07-29T04:59:08.764Z,81.75
2022-07-29T04:59:40.334Z,81.96
2022-07-29T05:00:12.317Z,82.55
2022-07-29T05:00:43.903Z,82.44
2022-07-29T05:01:15.791Z,81.57
2022-07-29T05:01:47.510Z,81.83
2022-07-29T05:02:19.313Z,82.11
2022-07-29T05:02:51.022Z,82.33
2022-07-29T05:03:23.447Z,82.00
2022-07-29T05:04:00.118Z,81.50
2022-07-29T05:04:32.089Z,81.23
2022-07-29T05:05:03.859Z,81.00
2022-07-29T05:05:35.612Z,81.80
2022-07-29T05:06:07.309Z,80.84
2022-07-29T05:06:38.814Z,80.33
2022-07-29T05:07:10.369Z,80.31
2022-07-29T05:07:42.199Z,81.12
2022-07-29T05:08:13.827Z,80.86
2022-07-29T05:08:45.453Z,81.20
2022-07-29T05:09:17.074Z,80.86
2022-07-29T05:09:48.759Z,81.60
2022-07-29T05:10:20.403Z,81.97
2022-07-29T05:10:51.979Z,81.34
2022-07-29T05:11:26.110Z,82.55
2022-07-29T05:12:01.800Z,82.08
2022-07-29T05:12:33.475Z,81.71
2022-07-29T05:13:07.389Z,82.42
2022-07-29T05:13:45.070Z,82.34
2022-07-29T05:14:18.956Z,82.37
2022-07-29T05:14:50.808Z,83.23
2022-07-29T05:15:22.373Z,82.89
2022-07-29T05:15:54.001Z,82.68
2022-07-29T05:16:25.685Z,83.59
2022-07-29T05:16:58.114Z,83.01
2022-07-29T05:17:29.655Z,83.46
2022-07-29T05:18:01.932Z,83.92
2022-07-29T05:18:33.515Z,83.12
2022-07-29T05:19:05.136Z,83.79
2022-07-29T05:19:39.415Z,83.93
2022-07-29T05:20:11.590Z,84.56
2022-07-29T05:20:43.169Z,84.84
2022-07-29T05:21:14.756Z,84.42
2022-07-29T05:21:46.337Z,85.46
2022-07-29T05:22:21.524Z,86.54
2022-07-29T05:22:53.451Z,87.19
2022-07-29T05:23:25.090Z,86.89
2022-07-29T05:23:56.725Z,86.50
2022-07-29T05:24:28.520Z,86.19
2022-07-29T05:25:01.452Z,85.70
2022-07-29T05:25:43.550Z,84.70
2022-07-29T05:26:16.460Z,85.37
2022-07-29T05:26:48.022Z,85.60
2022-07-29T05:27:19.571Z,85.53
2022-07-29T05:27:51.556Z,86.00
2022-07-29T05:28:23.231Z,86.09
2022-07-29T05:28:55.463Z,86.32
2022-07-29T05:29:44.863Z,86.43
2022-07-29T05:30:17.359Z,86.59
2022-07-29T05:30:49.381Z,86.70
2022-07-29T05:31:21.525Z,85.95
2022-07-29T05:31:54.022Z,86.60
2022-07-29T05:32:25.721Z,87.36
2022-07-29T05:32:57.239Z,86.84
2022-07-29T05:33:35.771Z,88.64
2022-07-29T05:34:08.323Z,88.83
2022-07-29T05:34:50.813Z,89.09
2022-07-29T05:35:23.594Z,89.28
2022-07-29T05:36:00.311Z,88.02
2022-07-29T05:36:32.537Z,87.72
2022-07-29T05:37:04.182Z,86.01
2022-07-29T05:37:35.738Z,85.61
2022-07-29T05:38:07.296Z,84.46
2022-07-29T05:38:39.126Z,84.27
2022-07-29T05:39:10.778Z,84.39
2022-07-29T05:39:47.409Z,84.01
2022-07-29T05:40:21.427Z,85.06
2022-07-29T05:40:52.977Z,85.19
2022-07-29T05:41:24.518Z,84.84
2022-07-29T05:41:56.147Z,84.42
2022-07-29T05:42:27.785Z,84.30
2022-07-29T05:42:59.381Z,84.76
2022-07-29T05:43:31.502Z,84.79
2022-07-29T05:44:03.357Z,85.19
2022-07-29T05:44:38.009Z,85.06
2022-07-29T05:45:10.013Z,85.05
2022-07-29T05:45:49.673Z,86.03
2022-07-29T05:46:22.284Z,86.07
2022-07-29T05:46:53.922Z,85.48
2022-07-29T05:47:25.622Z,85.77
2022-07-29T05:47:58.071Z,85.16
2022-07-29T05:48:29.649Z,85.40
2022-07-29T05:49:01.602Z,85.66
2022-07-29T05:49:33.624Z,86.09
2022-07-29T05:50:05.756Z,86.04
2022-07-29T05:50:37.287Z,86.08
2022-07-29T05:51:19.520Z,85.47
2022-07-29T05:51:51.682Z,85.69
2022-07-29T05:52:23.500Z,85.94
2022-07-29T05:52:55.026Z,84.80
2022-07-29T05:53:26.619Z,85.13
2022-07-29T05:53:58.164Z,84.39
2022-07-29T05:54:29.833Z,85.47
2022-07-29T05:55:05.215Z,85.26
2022-07-29T05:55:36.783Z,85.63
2022-07-29T05:56:10.663Z,84.96
2022-07-29T05:56:42.253Z,85.39
2022-07-29T05:57:19.544Z,85.12
2022-07-29T05:57:53.177Z,84.71
2022-07-29T05:58:24.725Z,84.16
2022-07-29T05:58:56.344Z,84.26
2022-07-29T05:59:30.453Z,83.81
2022-07-29T06:00:02.548Z,83.27
2022-07-29T06:00:43.974Z,83.78
2022-07-29T06:01:15.573Z,83.53
2022-07-29T06:01:47.186Z,83.77
2022-07-29T06:02:19.058Z,84.72
2022-07-29T06:02:50.618Z,83.53
2022-07-29T06:03:22.335Z,83.00
2022-07-29T06:03:53.970Z,83.33
2022-07-29T06:04:25.644Z,83.76
2022-07-29T06:04:57.323Z,83.97
2022-07-29T06:05:28.928Z,83.47
2022-07-29T06:06:00.465Z,83.86
2022-07-29T06:06:32.030Z,84.52
2022-07-29T06:07:03.689Z,84.05
2022-07-29T06:07:35.294Z,84.42
2022-07-29T06:08:08.338Z,83.46
2022-07-29T06:08:41.117Z,83.70
2022-07-29T06:09:13.354Z,82.76
2022-07-29T06:09:45.854Z,82.44
2022-07-29T06:10:17.372Z,82.33
2022-07-29T06:10:49.113Z,82.73
2022-07-29T06:11:20.671Z,83.12
2022-07-29T06:11:53.336Z,82.26
2022-07-29T06:12:24.922Z,82.48
2022-07-29T06:12:56.464Z,82.46
2022-07-29T06:13:28.615Z,81.91
2022-07-29T06:14:00.140Z,82.36
2022-07-29T06:14:31.677Z,82.30
2022-07-29T06:15:03.753Z,81.89
2022-07-29T06:15:35.434Z,82.07
2022-07-29T06:16:07.052Z,82.63
2022-07-29T06:16:38.695Z,82.10
2022-07-29T06:17:12.735Z,82.64
2022-07-29T06:18:00.617Z,82.97
2022-07-29T06:18:33.010Z,82.85
2022-07-29T06:19:05.358Z,82.63
2022-07-29T06:19:37.438Z,82.83
2022-07-29T06:20:10.805Z,83.55
2022-07-29T06:20:42.555Z,83.59
2022-07-29T06:21:14.120Z,83.58
2022-07-29T06:21:46.455Z,82.81
2022-07-29T06:22:18.316Z,82.63
2022-07-29T06:22:49.851Z,82.91
2022-07-29T06:23:22.866Z,82.64
2022-07-29T06:23:54.479Z,82.77
2022-07-29T06:24:26.109Z,82.86
2022-07-29T06:24:57.629Z,83.13
2022-07-29T06:25:35.662Z,83.81
2022-07-29T06:26:07.385Z,84.08
2022-07-29T06:26:40.236Z,83.39
2022-07-29T06:27:12.285Z,83.47
2022-07-29T06:27:43.811Z,83.44
2022-07-29T06:28:15.615Z,83.60
2022-07-29T06:28:47.123Z,83.23
2022-07-29T06:29:18.768Z,83.24
2022-07-29T06:29:50.352Z,83.50
2022-07-29T06:30:21.888Z,83.62
2022-07-29T06:30:53.530Z,83.01
2022-07-29T06:31:25.184Z,83.24
2022-07-29T06:31:56.759Z,83.49
2022-07-29T06:32:28.688Z,82.52
2022-07-29T06:33:01.324Z,83.23
2022-07-29T06:33:32.997Z,82.62
2022-07-29T06:34:05.349Z,82.70
2022-07-29T06:34:37.360Z,82.92
2022-07-29T06:35:39.192Z,83.30
2022-07-29T06:36:00.926Z,82.88
2022-07-29T06:36:36.222Z,82.59
2022-07-29T06:37:13.202Z,82.67
2022-07-29T06:37:47.259Z,83.25
2022-07-29T06:38:31.245Z,82.55
2022-07-29T06:39:07.471Z,82.15
2022-07-29T06:39:39.256Z,82.60
2022-07-29T06:40:30.693Z,82.40
2022-07-29T06:41:07.035Z,82.29
2022-07-29T06:41:38.632Z,82.45
2022-07-29T06:42:14.576Z,82.61
2022-07-29T06:42:46.674Z,82.29
2022-07-29T06:43:18.841Z,82.40
2022-07-29T06:43:55.299Z,81.66
2022-07-29T06:44:28.383Z,82.95
2022-07-29T06:45:00.635Z,83.05
2022-07-29T06:45:35.321Z,82.29
2022-07-29T06:46:09.138Z,82.13
2022-07-29T06:46:40.798Z,82.32
2022-07-29T06:47:12.489Z,82.24
2022-07-29T06:47:44.049Z,82.46
2022-07-29T06:48:15.903Z,81.57
2022-07-29T06:48:48.575Z,81.54
2022-07-29T06:49:20.348Z,81.96
2022-07-29T06:49:51.905Z,82.29
2022-07-29T06:50:23.450Z,82.70
2022-07-29T06:50:56.330Z,83.24
2022-07-29T06:51:28.519Z,82.70
2022-07-29T06:52:00.094Z,82.67
2022-07-29T06:52:31.626Z,81.92
2022-07-29T06:53:03.855Z,82.13
2022-07-29T06:53:36.470Z,82.17
2022-07-29T06:54:08.297Z,81.70
2022-07-29T06:54:40.858Z,81.92
2022-07-29T06:55:12.500Z,81.74
2022-07-29T06:55:57.338Z,82.02
2022-07-29T06:56:28.953Z,82.24
2022-07-29T06:57:00.541Z,81.85
2022-07-29T06:57:32.158Z,81.52
2022-07-29T06:58:03.712Z,82.19
2022-07-29T06:58:36.130Z,82.01
2022-07-29T06:59:09.222Z,81.80
2022-07-29T06:59:41.074Z,81.96
2022-07-29T07:00:13.458Z,81.76
2022-07-29T07:00:46.062Z,81.81
2022-07-29T07:01:17.734Z,82.07
2022-07-29T07:01:49.470Z,81.96
2022-07-29T07:02:21.473Z,81.97
2022-07-29T07:02:53.062Z,82.09
2022-07-29T07:03:25.163Z,82.17
2022-07-29T07:03:57.273Z,81.92
2022-07-29T07:04:29.321Z,81.84
2022-07-29T07:05:00.912Z,81.97
2022-07-29T07:05:32.446Z,82.42
2022-07-29T07:06:04.348Z,81.88
2022-07-29T07:06:36.141Z,82.28
2022-07-29T07:07:07.686Z,81.96
2022-07-29T07:07:39.205Z,81.61
2022-07-29T07:08:11.402Z,82.52
2022-07-29T07:08:43.034Z,82.30
2022-07-29T07:09:14.566Z,81.83
2022-07-29T07:09:46.112Z,82.32
2022-07-29T07:10:17.758Z,82.04
2022-07-29T07:10:49.555Z,81.53
2022-07-29T07:11:21.088Z,81.56
2022-07-29T07:11:52.608Z,82.45
2022-07-29T07:12:24.182Z,82.23
2022-07-29T07:12:55.873Z,82.17
2022-07-29T07:13:27.441Z,81.66
2022-07-29T07:14:02.939Z,81.84
2022-07-29T07:14:35.783Z,82.16
2022-07-29T07:15:07.758Z,82.04
2022-07-29T07:15:40.263Z,81.79
2022-07-29T07:16:11.969Z,81.54
2022-07-29T07:16:43.589Z,81.72
2022-07-29T07:17:15.187Z,81.42
2022-07-29T07:17:46.773Z,81.54
2022-07-29T07:18:19.298Z,81.72
2022-07-29T07:18:50.898Z,81.09